createdAt,value
2022-09-07T00:00:24.080Z,94.00
2022-09-07T00:02:50.730Z,94.38
2022-09-07T00:05:17.197Z,94.91
2022-09-07T00:07:43.611Z,95.12
2022-09-07T00:10:10.089Z,95.52
2022-09-07T00:12:36.621Z,96.05
2022-09-07T00:15:08.118Z,96.28
2022-09-07T00:17:34.526Z,96.14
2022-09-07T00:20:01.311Z,96.37
2022-09-07T00:22:27.830Z,96.65
2022-09-07T00:24:54.240Z,96.61
2022-09-07T00:27:20.646Z,96.43
2022-09-07T00:29:47.320Z,96.74
2022-09-07T00:32:13.730Z,96.97
2022-09-07T00:34:40.174Z,97.10
2022-09-07T00:37:06.595Z,96.58
2022-09-07T00:39:33.894Z,96.68
2022-09-07T00:42:01.035Z,96.66
2022-09-07T00:44:42.767Z,96.11
2022-09-07T00:47:45.478Z,96.01
2022-09-07T00:50:18.980Z,96.79
2022-09-07T00:52:50.332Z,96.37
2022-09-07T00:55:17.861Z,97.06
2022-09-07T00:57:47.672Z,97.92
2022-09-07T01:00:14.449Z,97.34
2022-09-07T01:02:41.454Z,97.44
2022-09-07T01:05:17.156Z,97.80
2022-09-07T01:07:44.436Z,97.55
2022-09-07T01:10:11.470Z,98.23
2022-09-07T01:12:37.936Z,98.33
2022-09-07T01:15:04.980Z,98.79
2022-09-07T01:18:11.870Z,98.76
2022-09-07T01:20:52.767Z,98.51
2022-09-07T01:23:34.443Z,99.01
2022-09-07T01:26:22.205Z,98.66
2022-09-07T01:28:58.518Z,98.23
2022-09-07T01:31:32.720Z,98.09
2022-09-07T01:34:14.728Z,97.66
2022-09-07T01:37:09.196Z,98.10
2022-09-07T01:40:00.585Z,97.83
2022-09-07T01:42:38.463Z,97.36
2022-09-07T01:45:11.319Z,97.77
2022-09-07T01:47:43.812Z,96.95
2022-09-07T01:50:18.812Z,97.17
2022-09-07T01:53:00.225Z,97.36
2022-09-07T01:55:40.641Z,97.09
2022-09-07T01:58:32.023Z,97.34
2022-09-07T02:01:05.279Z,98.48
2022-09-07T02:03:39.472Z,98.02
2022-09-07T02:06:12.005Z,99.06
2022-09-07T02:08:49.461Z,99.16
2022-09-07T02:11:25.544Z,99.19
2022-09-07T02:14:00.555Z,98.79
2022-09-07T02:16:29.647Z,99.13
2022-09-07T02:19:01.102Z,99.33
2022-09-07T02:21:38.172Z,98.77
2022-09-07T02:24:09.663Z,98.97
2022-09-07T02:26:39.595Z,98.28
2022-09-07T02:29:06.743Z,98.85
2022-09-07T02:31:33.500Z,98.87
2022-09-07T02:34:01.927Z,98.64
2022-09-07T02:36:33.366Z,98.62
2022-09-07T02:38:59.823Z,98.88
2022-09-07T02:41:38.622Z,98.47
2022-09-07T02:44:14.068Z,98.46
2022-09-07T02:46:58.619Z,98.34
2022-09-07T02:49:58.437Z,98.42
2022-09-07T02:52:44.212Z,98.65
2022-09-07T02:55:42.978Z,98.70
2022-09-07T02:58:34.000Z,98.61
2022-09-07T03:01:21.525Z,98.33
2022-09-07T03:04:16.563Z,98.20
2022-09-07T03:07:00.337Z,98.70
2022-09-07T03:09:34.988Z,98.68
2022-09-07T03:12:05.363Z,98.33
2022-09-07T03:14:33.629Z,98.26
2022-09-07T03:17:00.479Z,98.59
2022-09-07T03:19:27.531Z,98.63
2022-09-07T03:21:54.063Z,98.63
2022-09-07T03:24:20.493Z,98.66
2022-09-07T03:26:51.657Z,99.14
2022-09-07T03:29:19.228Z,98.58
2022-09-07T03:31:46.357Z,99.06
2022-09-07T03:34:12.979Z,98.80
2022-09-07T03:36:39.527Z,98.29
2022-09-07T03:39:07.287Z,98.34
2022-09-07T03:41:34.399Z,98.38
2022-09-07T03:44:07.839Z,98.25
2022-09-07T03:46:34.561Z,98.07
2022-09-07T03:49:01.084Z,97.82
2022-09-07T03:51:27.594Z,97.94
2022-09-07T03:53:54.733Z,98.54
2022-09-07T03:56:23.144Z,98.29
2022-09-07T03:58:50.627Z,97.94
2022-09-07T04:01:19.968Z,98.06
2022-09-07T04:03:47.997Z,97.92
2022-09-07T04:06:16.084Z,98.19
2022-09-07T04:08:44.396Z,98.10
2022-09-07T04:11:13.843Z,98.44
2022-09-07T04:13:41.475Z,98.04
2022-09-07T04:16:16.874Z,97.74
2022-09-07T04:18:43.624Z,98.63
2022-09-07T04:21:10.878Z,98.82
2022-09-07T04:23:42.050Z,99.05
2022-09-07T04:26:17.428Z,98.06
2022-09-07T04:28:44.764Z,98.25
2022-09-07T04:31:11.781Z,98.19
2022-09-07T04:33:38.309Z,98.23
2022-09-07T04:36:05.187Z,98.55
2022-09-07T04:38:31.789Z,98.55
2022-09-07T04:41:02.315Z,98.82
2022-09-07T04:43:29.671Z,98.36
2022-09-07T04:45:56.270Z,98.15
2022-09-07T04:48:22.881Z,98.17
2022-09-07T04:50:49.612Z,98.44
2022-09-07T04:53:16.035Z,98.88
2022-09-07T04:55:42.524Z,99.07
2022-09-07T04:58:08.956Z,99.25
2022-09-07T05:00:35.722Z,99.22
2022-09-07T05:03:02.164Z,99.48
2022-09-07T05:05:28.584Z,99.36
2022-09-07T05:07:54.969Z,99.12
2022-09-07T05:10:21.684Z,99.03
2022-09-07T05:12:48.290Z,99.03
2022-09-07T05:15:14.852Z,98.68
2022-09-07T05:17:41.272Z,98.49
2022-09-07T05:20:07.947Z,98.33
2022-09-07T05:22:35.547Z,98.28
2022-09-07T05:25:02.231Z,97.93
2022-09-07T05:27:28.644Z,97.61
2022-09-07T05:32:24.884Z,98.11
2022-09-07T05:34:53.046Z,98.10
2022-09-07T05:37:19.697Z,97.92
2022-09-07T05:39:46.180Z,97.89
2022-09-07T05:42:12.664Z,97.44
2022-09-07T05:44:46.471Z,97.81
2022-09-07T05:47:13.172Z,97.25
2022-09-07T05:49:39.756Z,97.81
2022-09-07T05:52:06.779Z,98.13
2022-09-07T05:54:33.238Z,97.64
2022-09-07T05:56:59.669Z,97.33
2022-09-07T05:59:26.081Z,97.00
2022-09-07T06:01:52.579Z,94.73
2022-09-07T06:04:19.487Z,94.26
2022-09-07T06:07:04.648Z,95.29
2022-09-07T06:09:32.472Z,96.27
2022-09-07T06:11:58.966Z,96.45
2022-09-07T06:14:25.403Z,97.27
2022-09-07T06:16:51.964Z,97.47
2022-09-07T06:19:18.431Z,96.88
2022-09-07T06:21:44.861Z,97.10
2022-09-07T06:24:11.328Z,97.70
2022-09-07T06:26:37.771Z,97.88
2022-09-07T06:29:04.271Z,97.98
2022-09-07T06:31:30.895Z,97.62
2022-09-07T06:33:58.724Z,98.20
2022-09-07T06:36:27.731Z,97.43
2022-09-07T06:38:56.088Z,97.40
2022-09-07T06:44:19.362Z,97.25
2022-09-07T06:49:32.219Z,96.43
2022-09-07T06:51:58.902Z,96.35
2022-09-07T06:57:11.791Z,95.54
2022-09-07T06:59:38.540Z,95.65
2022-09-07T07:02:06.871Z,95.09
2022-09-07T07:04:39.524Z,95.40
2022-09-07T07:07:10.666Z,94.47
2022-09-07T07:09:37.405Z,95.26
2022-09-07T07:12:03.959Z,93.86
2022-09-07T07:14:33.772Z,94.22
2022-09-07T07:17:01.428Z,93.92
2022-09-07T07:19:28.447Z,94.61
2022-09-07T07:22:14.451Z,93.25
2022-09-07T07:24:41.247Z,93.54
2022-09-07T07:27:07.698Z,94.21
2022-09-07T07:29:34.140Z,92.65
2022-09-07T07:32:00.903Z,93.04
2022-09-07T07:34:48.088Z,91.89
2022-09-07T07:37:33.643Z,91.98
2022-09-07T07:40:16.940Z,91.74
2022-09-07T07:42:45.548Z,89.95
2022-09-07T07:47:59.762Z,90.83
2022-09-07T07:50:34.162Z,90.46
2022-09-07T07:55:47.608Z,90.51
2022-09-07T07:58:14.004Z,90.64
2022-09-07T08:00:53.897Z,89.09
2022-09-07T08:03:22.326Z,89.78
2022-09-07T08:05:48.723Z,88.69
2022-09-07T08:08:15.495Z,88.78
2022-09-07T08:10:42.135Z,87.86
2022-09-07T08:13:08.525Z,88.36
2022-09-07T08:15:41.181Z,88.71
2022-09-07T08:18:07.596Z,88.28
2022-09-07T08:20:34.047Z,88.19
2022-09-07T08:23:00.404Z,86.72
2022-09-07T08:25:28.370Z,85.52
2022-09-07T08:27:54.770Z,84.28
2022-09-07T08:30:22.223Z,84.71
2022-09-07T08:32:48.623Z,83.89
2022-09-07T08:35:15.023Z,84.64
2022-09-07T08:37:41.447Z,84.28
2022-09-07T08:40:10.411Z,81.88
2022-09-07T08:42:45.596Z,81.32
2022-09-07T08:45:20.756Z,80.36
2022-09-07T08:47:52.216Z,78.98
2022-09-07T08:50:21.884Z,79.96
2022-09-07T08:52:58.551Z,78.30
2022-09-07T08:55:31.573Z,79.21
2022-09-07T08:58:27.070Z,77.24
2022-09-07T09:06:44.067Z,75.66
2022-09-07T09:09:25.550Z,76.40
2022-09-07T09:12:01.424Z,76.79
2022-09-07T09:15:10.329Z,76.20
2022-09-07T09:18:05.608Z,75.68
2022-09-07T09:20:51.835Z,74.40
2022-09-07T09:23:20.036Z,72.06
2022-09-07T09:25:53.556Z,73.26
2022-09-07T09:28:20.367Z,74.93
2022-09-07T09:30:50.183Z,75.58
2022-09-07T09:33:28.802Z,74.98
2022-09-07T09:35:59.636Z,74.02
2022-09-07T09:38:28.634Z,72.87
2022-09-07T09:40:56.958Z,72.23
2022-09-07T09:43:32.861Z,71.03
2022-09-07T09:46:16.920Z,70.89
2022-09-07T09:48:43.508Z,70.23
2022-09-07T09:54:06.127Z,71.30
2022-09-07T09:56:41.621Z,70.54
2022-09-07T10:05:39.182Z,67.92
2022-09-07T10:08:25.710Z,67.28
2022-09-07T10:10:59.589Z,64.83
2022-09-07T10:13:31.691Z,66.54
2022-09-07T10:16:01.158Z,68.47
2022-09-07T10:18:59.693Z,67.51
2022-09-07T10:21:28.981Z,66.38
2022-09-07T10:24:12.656Z,66.72
2022-09-07T10:26:40.471Z,65.67
2022-09-07T10:29:13.579Z,65.04
2022-09-07T10:31:45.949Z,68.62
2022-09-07T10:34:41.619Z,63.45
2022-09-07T10:37:11.356Z,66.34
2022-09-07T10:39:42.457Z,66.26
2022-09-07T10:42:08.983Z,63.48
2022-09-07T10:45:10.981Z,64.34
2022-09-07T10:47:37.404Z,62.67
2022-09-07T10:50:27.158Z,61.53
2022-09-07T10:53:39.379Z,62.58
2022-09-07T10:56:08.979Z,62.26
2022-09-07T11:01:57.295Z,63.69
2022-09-07T11:04:26.777Z,64.18
2022-09-07T11:07:04.117Z,62.30
2022-09-07T11:09:42.714Z,62.56
2022-09-07T11:12:16.518Z,61.43
2022-09-07T11:14:49.675Z,61.10
2022-09-07T11:17:23.437Z,58.64
2022-09-07T11:20:01.450Z,59.25
2022-09-07T11:22:40.889Z,58.88
2022-09-07T11:25:31.616Z,59.69
2022-09-07T11:28:22.429Z,59.53
2022-09-07T11:31:00.054Z,57.46
2022-09-07T11:33:33.473Z,59.17
2022-09-07T11:36:12.486Z,57.24
2022-09-07T11:38:45.510Z,58.65
2022-09-07T11:41:29.342Z,58.94
2022-09-07T11:43:58.190Z,56.97
2022-09-07T11:46:40.628Z,58.26
2022-09-07T11:49:33.540Z,60.98
2022-09-07T11:52:08.758Z,60.95
2022-09-07T11:54:51.028Z,59.73
2022-09-07T11:57:23.937Z,59.39
2022-09-07T12:00:17.676Z,59.41
2022-09-07T12:03:11.702Z,58.86
2022-09-07T12:05:59.940Z,59.10
2022-09-07T12:08:45.176Z,59.23
2022-09-07T12:11:40.223Z,59.00
2022-09-07T12:14:21.757Z,58.85
2022-09-07T12:17:09.662Z,59.19
2022-09-07T12:19:36.282Z,58.98
2022-09-07T12:22:02.864Z,59.29
2022-09-07T12:24:46.704Z,59.41
2022-09-07T12:27:22.068Z,57.71
2022-09-07T12:30:12.095Z,58.12
2022-09-07T12:32:55.631Z,57.01
2022-09-07T12:35:28.215Z,58.02
2022-09-07T12:37:56.275Z,58.17
2022-09-07T12:40:28.549Z,54.69
2022-09-07T12:43:12.981Z,56.19
2022-09-07T12:45:39.448Z,57.00
2022-09-07T12:48:14.832Z,57.66
2022-09-07T12:50:56.286Z,54.60
2022-09-07T12:53:34.777Z,56.61
2022-09-07T12:56:26.071Z,54.75
2022-09-07T12:59:19.506Z,55.73
2022-09-07T13:02:18.170Z,55.29
2022-09-07T13:05:00.811Z,54.79
2022-09-07T13:07:36.013Z,55.85
2022-09-07T13:10:05.339Z,57.11
2022-09-07T13:12:59.611Z,57.40
2022-09-07T13:15:33.651Z,54.42
2022-09-07T13:18:00.601Z,54.86
2022-09-07T13:20:34.797Z,54.33
2022-09-07T13:23:08.928Z,55.06
2022-09-07T13:25:38.040Z,54.18
2022-09-07T13:28:36.931Z,54.41
2022-09-07T13:31:32.195Z,55.18
2022-09-07T13:33:58.863Z,55.17
2022-09-07T13:36:45.107Z,56.51
2022-09-07T13:39:15.826Z,56.00
2022-09-07T13:41:49.383Z,56.79
2022-09-07T13:44:25.923Z,56.62
2022-09-07T13:47:17.870Z,54.60
2022-09-07T13:50:05.108Z,54.47
2022-09-07T13:52:48.077Z,51.71
2022-09-07T13:55:27.991Z,52.68
2022-09-07T13:58:04.597Z,52.46
2022-09-07T14:00:31.208Z,50.72
2022-09-07T14:03:04.837Z,52.16
2022-09-07T14:05:31.309Z,52.61
2022-09-07T14:07:57.703Z,52.32
2022-09-07T14:10:26.236Z,53.56
2022-09-07T14:13:14.156Z,52.46
2022-09-07T14:15:49.705Z,51.66
2022-09-07T14:18:31.036Z,51.26
2022-09-07T14:20:58.650Z,50.20
2022-09-07T14:23:29.828Z,52.86
2022-09-07T14:26:34.675Z,52.35
2022-09-07T14:29:01.451Z,52.38
2022-09-07T14:31:28.622Z,51.47
2022-09-07T14:33:57.616Z,52.33
2022-09-07T14:36:44.689Z,52.79
2022-09-07T14:39:12.804Z,51.19
2022-09-07T14:41:41.881Z,50.75
2022-09-07T14:44:31.113Z,51.14
2022-09-07T14:47:01.464Z,50.77
2022-09-07T14:49:28.865Z,51.84
2022-09-07T14:51:55.780Z,50.56
2022-09-07T14:54:31.709Z,51.07
2022-09-07T14:57:06.846Z,51.34
2022-09-07T14:59:45.470Z,52.30
2022-09-07T15:02:17.853Z,50.29
2022-09-07T15:04:49.790Z,50.15
2022-09-07T15:07:29.463Z,50.25
2022-09-07T15:09:55.982Z,52.45
2022-09-07T15:12:38.169Z,52.10
2022-09-07T15:15:34.419Z,51.19
2022-09-07T15:18:08.466Z,49.74
2022-09-07T15:20:44.207Z,49.95
2022-09-07T15:23:19.544Z,48.63
2022-09-07T15:25:53.451Z,51.41
2022-09-07T15:34:02.154Z,52.48
2022-09-07T15:36:28.792Z,51.31
2022-09-07T15:39:03.596Z,51.08
2022-09-07T15:41:30.145Z,49.24
2022-09-07T15:43:56.959Z,50.92
2022-09-07T15:46:25.048Z,51.83
2022-09-07T15:48:55.594Z,49.89
2022-09-07T15:54:13.979Z,50.20
2022-09-07T15:57:48.107Z,50.24
2022-09-07T15:59:31.101Z,50.98
2022-09-07T16:01:58.482Z,50.27
2022-09-07T16:04:25.454Z,49.85
2022-09-07T16:06:51.952Z,49.29
2022-09-07T16:09:21.755Z,49.94
2022-09-07T16:11:50.029Z,51.00
2022-09-07T16:14:18.621Z,51.12
2022-09-07T16:19:35.002Z,53.33
2022-09-07T16:22:02.002Z,53.16
2022-09-07T16:24:29.587Z,53.54
2022-09-07T16:26:56.793Z,51.51
2022-09-07T16:29:23.248Z,52.24
2022-09-07T16:34:36.316Z,52.81
2022-09-07T16:37:03.130Z,52.98
2022-09-07T16:39:29.549Z,52.69
2022-09-07T16:41:56.119Z,52.97
2022-09-07T16:44:23.119Z,53.95
2022-09-07T16:46:50.600Z,53.58
2022-09-07T16:49:17.642Z,54.01
2022-09-07T16:51:45.624Z,55.56
2022-09-07T16:54:13.569Z,55.78
2022-09-07T16:56:39.993Z,55.98
2022-09-07T16:59:08.519Z,55.49
2022-09-07T17:01:37.572Z,55.33
2022-09-07T17:04:09.632Z,57.84
2022-09-07T17:06:37.663Z,56.61
2022-09-07T17:09:04.412Z,57.84
2022-09-07T17:11:33.359Z,58.00
2022-09-07T17:14:01.116Z,57.65
2022-09-07T17:16:30.136Z,58.74
2022-09-07T17:21:46.432Z,58.96
2022-09-07T17:24:13.041Z,60.66
2022-09-07T17:26:42.332Z,60.19
2022-09-07T17:29:09.503Z,60.32
2022-09-07T17:34:23.752Z,60.89
2022-09-07T17:36:50.170Z,62.47
2022-09-07T17:39:18.438Z,60.73
2022-09-07T17:41:52.684Z,61.51
2022-09-07T17:44:19.468Z,62.05
2022-09-07T17:46:45.912Z,62.92
2022-09-07T17:49:14.284Z,63.54
2022-09-07T17:51:40.790Z,64.01
2022-09-07T17:54:11.730Z,65.31
2022-09-07T17:56:39.608Z,66.31
2022-09-07T18:01:53.877Z,68.39
2022-09-07T18:04:20.895Z,68.89
2022-09-07T18:06:47.410Z,68.30
2022-09-07T18:09:13.979Z,69.51
2022-09-07T18:11:47.306Z,69.58
2022-09-07T18:14:15.301Z,70.32
2022-09-07T18:16:43.795Z,70.00
2022-09-07T18:19:10.972Z,70.79
2022-09-07T18:21:38.128Z,71.14
2022-09-07T18:24:13.520Z,71.07
2022-09-07T18:26:40.983Z,71.08
2022-09-07T18:29:19.243Z,71.31
2022-09-07T18:31:54.685Z,72.23
2022-09-07T18:34:21.835Z,72.01
2022-09-07T18:36:48.460Z,72.30
2022-09-07T18:39:15.035Z,72.91
2022-09-07T18:41:42.015Z,73.44
2022-09-07T18:45:27.351Z,73.38
2022-09-07T18:46:55.328Z,73.34
2022-09-07T18:49:21.723Z,72.82
2022-09-07T18:54:34.827Z,73.88
2022-09-07T18:57:01.222Z,74.51
2022-09-07T18:59:28.113Z,75.11
2022-09-07T19:01:58.827Z,75.63
2022-09-07T19:05:49.458Z,75.41
2022-09-07T19:07:15.956Z,75.37
2022-09-07T19:09:42.351Z,76.08
2022-09-07T19:12:09.932Z,75.78
2022-09-07T19:14:36.352Z,76.09
2022-09-07T19:17:02.781Z,75.82
2022-09-07T19:19:29.151Z,76.54
2022-09-07T19:21:57.497Z,76.94
2022-09-07T19:24:23.965Z,77.79
2022-09-07T19:26:50.332Z,78.14
2022-09-07T19:29:18.340Z,77.69
2022-09-07T19:32:04.032Z,78.27
2022-09-07T19:34:35.669Z,77.73
2022-09-07T19:37:03.261Z,78.17
2022-09-07T19:39:29.720Z,78.18
2022-09-07T19:41:56.430Z,78.14
2022-09-07T19:44:22.962Z,78.60
2022-09-07T19:46:49.708Z,78.49
2022-09-07T19:49:16.180Z,78.57
2022-09-07T19:51:42.883Z,79.61
2022-09-07T19:54:10.438Z,78.79
2022-09-07T19:56:39.355Z,79.52
2022-09-07T19:59:06.521Z,79.71
2022-09-07T20:01:33.856Z,79.30
2022-09-07T20:04:03.285Z,79.85
2022-09-07T20:06:32.673Z,80.11
2022-09-07T20:09:01.168Z,80.94
2022-09-07T20:11:30.699Z,80.50
2022-09-07T20:13:57.206Z,80.24
2022-09-07T20:16:25.401Z,80.61
2022-09-07T20:18:51.903Z,81.05
2022-09-07T20:21:21.474Z,81.72
2022-09-07T20:23:48.451Z,81.84
2022-09-07T20:26:16.612Z,81.94
2022-09-07T20:28:43.655Z,82.00
2022-09-07T20:31:15.758Z,82.43
2022-09-07T20:33:43.371Z,82.46
2022-09-07T20:36:12.172Z,82.47
2022-09-07T20:38:44.040Z,82.45
2022-09-07T20:41:31.264Z,82.21
2022-09-07T20:43:59.318Z,83.32
2022-09-07T20:46:26.219Z,83.73
2022-09-07T20:48:52.741Z,83.50
2022-09-07T20:51:21.140Z,83.55
2022-09-07T20:53:49.171Z,83.38
2022-09-07T20:56:27.475Z,82.98
2022-09-07T20:59:00.604Z,83.48
2022-09-07T21:01:28.908Z,83.98
2022-09-07T21:03:57.895Z,83.95
2022-09-07T21:06:26.085Z,84.67
2022-09-07T21:08:52.476Z,83.95
2022-09-07T21:11:21.483Z,83.86
2022-09-07T21:13:54.070Z,84.66
2022-09-07T21:16:21.674Z,84.68
2022-09-07T21:18:53.677Z,84.42
2022-09-07T21:21:20.835Z,85.18
2022-09-07T21:23:47.819Z,85.41
2022-09-07T21:26:14.987Z,86.15
2022-09-07T21:28:41.412Z,85.72
2022-09-07T21:31:09.039Z,85.92
2022-09-07T21:33:37.200Z,86.42
2022-09-07T21:36:09.470Z,85.90
2022-09-07T21:38:37.731Z,86.80
2022-09-07T21:41:12.507Z,86.60
2022-09-07T21:43:39.304Z,86.69
2022-09-07T21:46:17.388Z,86.67
2022-09-07T21:48:46.789Z,86.26
2022-09-07T21:51:14.163Z,86.56
2022-09-07T21:53:40.992Z,87.13
2022-09-07T21:56:11.118Z,86.77
2022-09-07T21:58:37.645Z,87.08
2022-09-07T22:01:14.170Z,86.46
2022-09-07T22:03:40.770Z,87.15
2022-09-07T22:06:08.599Z,86.95
2022-09-07T22:08:36.082Z,86.55
2022-09-07T22:11:05.120Z,86.88
2022-09-07T22:13:31.610Z,88.08
2022-09-07T22:15:58.475Z,87.59
2022-09-07T22:18:25.001Z,88.69
2022-09-07T22:21:07.915Z,87.74
2022-09-07T22:23:37.736Z,87.46
2022-09-07T22:26:04.358Z,87.74
2022-09-07T22:28:31.958Z,87.71
2022-09-07T22:31:29.341Z,87.47
2022-09-07T22:33:57.230Z,88.21
2022-09-07T22:36:32.358Z,87.95
2022-09-07T22:39:01.170Z,88.29
2022-09-07T22:41:33.281Z,87.48
2022-09-07T22:44:00.128Z,87.54
2022-09-07T22:46:29.135Z,88.72
2022-09-07T22:48:59.004Z,87.42
2022-09-07T22:51:26.490Z,88.12
2022-09-07T22:53:53.899Z,88.17
2022-09-07T22:56:24.340Z,88.17
2022-09-07T22:58:53.778Z,88.22
2022-09-07T23:01:21.811Z,88.39
2022-09-07T23:03:49.080Z,88.45
2022-09-07T23:06:42.063Z,88.37
2022-09-07T23:09:11.332Z,88.37
2022-09-07T23:11:38.382Z,88.51
2022-09-07T23:14:07.675Z,87.99
2022-09-07T23:16:34.227Z,88.52
2022-09-07T23:19:01.343Z,88.55
2022-09-07T23:21:28.238Z,88.74
2022-09-07T23:23:57.159Z,88.78
2022-09-07T23:26:24.940Z,89.59
2022-09-07T23:28:52.935Z,88.89
2022-09-07T23:31:20.002Z,88.77
2022-09-07T23:33:46.580Z,89.59
2022-09-07T23:36:13.354Z,89.51
2022-09-07T23:38:39.760Z,89.88
2022-09-07T23:41:06.151Z,89.72
2022-09-07T23:43:32.765Z,89.65
2022-09-07T23:46:02.294Z,90.07
2022-09-07T23:48:28.775Z,89.99
2022-09-07T23:50:55.232Z,89.99
2022-09-07T23:53:22.327Z,90.11
2022-09-07T23:55:50.302Z,90.46
2022-09-07T23:58:17.602Z,91.03
